sensor_id;sensor_type;location;lat;lon;timestamp;temperature;humidity
19192;DHT22;9728;48.194;16.346;2023-06-24T00:04:07;27.30;51.60
19192;DHT22;9728;48.194;16.346;2023-06-24T00:09:12;27.20;51.40
19192;DHT22;9728;48.194;16.346;2023-06-24T00:14:15;27.20;51.40
19192;DHT22;9728;48.194;16.346;2023-06-24T00:19:20;27.10;51.20
19192;DHT22;9728;48.194;16.346;2023-06-24T00:24:25;27.00;51.20
19192;DHT22;9728;48.194;16.346;2023-06-24T00:29:28;26.90;51.30
19192;DHT22;9728;48.194;16.346;2023-06-24T00:34:31;26.90;51.40
19192;DHT22;9728;48.194;16.346;2023-06-24T00:39:36;26.90;51.60
19192;DHT22;9728;48.194;16.346;2023-06-24T00:44:40;26.80;51.80
19192;DHT22;9728;48.194;16.346;2023-06-24T00:49:44;26.90;51.80
19192;DHT22;9728;48.194;16.346;2023-06-24T00:54:49;26.90;52.00
19192;DHT22;9728;48.194;16.346;2023-06-24T00:59:52;26.90;51.90
19192;DHT22;9728;48.194;16.346;2023-06-24T01:04:56;26.90;51.90
19192;DHT22;9728;48.194;16.346;2023-06-24T01:10:01;27.00;51.90
19192;DHT22;9728;48.194;16.346;2023-06-24T01:15:05;27.00;52.00
19192;DHT22;9728;48.194;16.346;2023-06-24T01:20:14;27.00;52.00
19192;DHT22;9728;48.194;16.346;2023-06-24T01:25:33;27.10;51.90
19192;DHT22;9728;48.194;16.346;2023-06-24T01:31:16;27.20;51.60
19192;DHT22;9728;48.194;16.346;2023-06-24T01:36:22;27.20;51.60
19192;DHT22;9728;48.194;16.346;2023-06-24T01:41:31;27.10;51.30
19192;DHT22;9728;48.194;16.346;2023-06-24T01:46:36;27.10;51.50
19192;DHT22;9728;48.194;16.346;2023-06-24T01:51:41;27.00;51.50
19192;DHT22;9728;48.194;16.346;2023-06-24T01:56:50;26.90;51.50
19192;DHT22;9728;48.194;16.346;2023-06-24T02:01:57;26.80;51.60
19192;DHT22;9728;48.194;16.346;2023-06-24T02:07:03;26.80;51.90
19192;DHT22;9728;48.194;16.346;2023-06-24T02:12:08;26.80;51.90
19192;DHT22;9728;48.194;16.346;2023-06-24T02:17:14;26.80;51.90
19192;DHT22;9728;48.194;16.346;2023-06-24T02:22:18;26.80;51.90
19192;DHT22;9728;48.194;16.346;2023-06-24T02:27:21;26.80;51.90
19192;DHT22;9728;48.194;16.346;2023-06-24T02:32:26;26.80;51.90
19192;DHT22;9728;48.194;16.346;2023-06-24T02:37:30;26.70;52.00
19192;DHT22;9728;48.194;16.346;2023-06-24T02:42:33;26.80;52.10
19192;DHT22;9728;48.194;16.346;2023-06-24T02:47:40;26.80;52.10
19192;DHT22;9728;48.194;16.346;2023-06-24T02:52:45;26.80;52.10
19192;DHT22;9728;48.194;16.346;2023-06-24T02:57:53;26.80;52.20
19192;DHT22;9728;48.194;16.346;2023-06-24T03:03:04;26.80;52.20
19192;DHT22;9728;48.194;16.346;2023-06-24T03:08:11;26.80;52.20
19192;DHT22;9728;48.194;16.346;2023-06-24T03:13:16;26.80;52.10
19192;DHT22;9728;48.194;16.346;2023-06-24T03:18:26;26.80;52.10
19192;DHT22;9728;48.194;16.346;2023-06-24T03:23:29;26.80;52.70
19192;DHT22;9728;48.194;16.346;2023-06-24T03:28:34;26.70;52.00
19192;DHT22;9728;48.194;16.346;2023-06-24T03:33:47;26.60;52.00
19192;DHT22;9728;48.194;16.346;2023-06-24T03:38:51;26.50;52.20
19192;DHT22;9728;48.194;16.346;2023-06-24T03:43:54;26.40;52.20
19192;DHT22;9728;48.194;16.346;2023-06-24T03:49:00;26.30;52.40
19192;DHT22;9728;48.194;16.346;2023-06-24T03:54:04;26.20;52.60
19192;DHT22;9728;48.194;16.346;2023-06-24T03:59:07;26.10;52.70
19192;DHT22;9728;48.194;16.346;2023-06-24T04:04:12;26.00;52.90
19192;DHT22;9728;48.194;16.346;2023-06-24T04:09:16;25.90;53.20
19192;DHT22;9728;48.194;16.346;2023-06-24T04:14:19;25.90;53.40
19192;DHT22;9728;48.194;16.346;2023-06-24T04:19:24;25.80;53.40
19192;DHT22;9728;48.194;16.346;2023-06-24T04:24:27;25.70;53.60
19192;DHT22;9728;48.194;16.346;2023-06-24T04:29:31;25.60;53.80
19192;DHT22;9728;48.194;16.346;2023-06-24T04:34:36;25.50;54.20
19192;DHT22;9728;48.194;16.346;2023-06-24T04:39:39;25.50;54.60
19192;DHT22;9728;48.194;16.346;2023-06-24T04:44:43;25.50;54.60
19192;DHT22;9728;48.194;16.346;2023-06-24T04:49:48;25.60;54.70
19192;DHT22;9728;48.194;16.346;2023-06-24T04:54:51;25.60;54.80
19192;DHT22;9728;48.194;16.346;2023-06-24T04:59:55;25.70;54.80
19192;DHT22;9728;48.194;16.346;2023-06-24T05:04:59;25.80;54.90
19192;DHT22;9728;48.194;16.346;2023-06-24T05:10:04;25.80;54.80
19192;DHT22;9728;48.194;16.346;2023-06-24T05:15:08;25.90;54.70
19192;DHT22;9728;48.194;16.346;2023-06-24T05:20:13;25.90;54.30
19192;DHT22;9728;48.194;16.346;2023-06-24T05:25:16;25.90;54.60
19192;DHT22;9728;48.194;16.346;2023-06-24T05:30:20;25.90;54.80
19192;DHT22;9728;48.194;16.346;2023-06-24T05:35:24;25.90;54.90
19192;DHT22;9728;48.194;16.346;2023-06-24T05:40:28;25.90;54.90
19192;DHT22;9728;48.194;16.346;2023-06-24T05:45:31;26.00;54.70
19192;DHT22;9728;48.194;16.346;2023-06-24T05:50:37;26.00;54.60
19192;DHT22;9728;48.194;16.346;2023-06-24T05:55:40;26.00;54.80
19192;DHT22;9728;48.194;16.346;2023-06-24T06:00:43;25.90;54.60
19192;DHT22;9728;48.194;16.346;2023-06-24T06:05:48;25.90;54.70
19192;DHT22;9728;48.194;16.346;2023-06-24T06:10:51;25.90;54.80
19192;DHT22;9728;48.194;16.346;2023-06-24T06:15:55;25.90;54.90
19192;DHT22;9728;48.194;16.346;2023-06-24T06:21:00;25.90;55.00
19192;DHT22;9728;48.194;16.346;2023-06-24T06:26:03;25.90;55.10
19192;DHT22;9728;48.194;16.346;2023-06-24T06:31:07;26.00;54.80
19192;DHT22;9728;48.194;16.346;2023-06-24T06:36:12;25.90;54.70
19192;DHT22;9728;48.194;16.346;2023-06-24T06:41:15;25.80;55.00
19192;DHT22;9728;48.194;16.346;2023-06-24T06:46:20;25.70;55.00
19192;DHT22;9728;48.194;16.346;2023-06-24T06:51:25;25.70;55.20
19192;DHT22;9728;48.194;16.346;2023-06-24T06:56:28;25.80;55.30
19192;DHT22;9728;48.194;16.346;2023-06-24T07:01:32;25.80;55.20
19192;DHT22;9728;48.194;16.346;2023-06-24T07:06:37;25.80;55.30
19192;DHT22;9728;48.194;16.346;2023-06-24T07:11:40;25.80;55.40
19192;DHT22;9728;48.194;16.346;2023-06-24T07:16:43;25.80;55.20
19192;DHT22;9728;48.194;16.346;2023-06-24T07:21:48;25.90;55.60
19192;DHT22;9728;48.194;16.346;2023-06-24T07:26:51;25.90;55.90
19192;DHT22;9728;48.194;16.346;2023-06-24T07:31:55;26.00;55.90
19192;DHT22;9728;48.194;16.346;2023-06-24T07:37:00;26.10;55.50
19192;DHT22;9728;48.194;16.346;2023-06-24T07:42:23;26.20;55.20
19192;DHT22;9728;48.194;16.346;2023-06-24T07:47:26;26.20;54.80
19192;DHT22;9728;48.194;16.346;2023-06-24T07:52:31;26.10;55.00
19192;DHT22;9728;48.194;16.346;2023-06-24T07:57:34;26.10;55.00
19192;DHT22;9728;48.194;16.346;2023-06-24T08:02:38;26.00;54.90
19192;DHT22;9728;48.194;16.346;2023-06-24T08:07:42;26.00;54.90
19192;DHT22;9728;48.194;16.346;2023-06-24T08:12:46;26.00;55.10
19192;DHT22;9728;48.194;16.346;2023-06-24T08:17:51;26.00;55.30
19192;DHT22;9728;48.194;16.346;2023-06-24T08:22:56;26.00;55.40
19192;DHT22;9728;48.194;16.346;2023-06-24T08:27:59;26.00;55.80
19192;DHT22;9728;48.194;16.346;2023-06-24T08:33:03;26.10;55.70
19192;DHT22;9728;48.194;16.346;2023-06-24T08:38:07;26.20;55.60
19192;DHT22;9728;48.194;16.346;2023-06-24T08:43:11;26.30;55.70
19192;DHT22;9728;48.194;16.346;2023-06-24T08:48:14;26.40;55.50
19192;DHT22;9728;48.194;16.346;2023-06-24T08:53:21;26.60;55.50
19192;DHT22;9728;48.194;16.346;2023-06-24T08:58:25;26.70;55.30
19192;DHT22;9728;48.194;16.346;2023-06-24T09:03:28;26.90;55.00
19192;DHT22;9728;48.194;16.346;2023-06-24T09:08:33;26.90;54.60
19192;DHT22;9728;48.194;16.346;2023-06-24T09:13:37;27.00;54.40
19192;DHT22;9728;48.194;16.346;2023-06-24T09:18:41;27.00;54.00
19192;DHT22;9728;48.194;16.346;2023-06-24T09:23:45;26.90;53.90
19192;DHT22;9728;48.194;16.346;2023-06-24T09:28:49;26.90;54.00
19192;DHT22;9728;48.194;16.346;2023-06-24T09:33:56;26.80;54.30
19192;DHT22;9728;48.194;16.346;2023-06-24T09:39:05;26.80;54.60
19192;DHT22;9728;48.194;16.346;2023-06-24T09:44:18;26.80;54.70
19192;DHT22;9728;48.194;16.346;2023-06-24T09:49:22;26.80;54.50
19192;DHT22;9728;48.194;16.346;2023-06-24T09:54:28;26.80;54.60
19192;DHT22;9728;48.194;16.346;2023-06-24T09:59:36;26.90;54.70
19192;DHT22;9728;48.194;16.346;2023-06-24T10:04:41;26.90;54.80
19192;DHT22;9728;48.194;16.346;2023-06-24T10:09:46;27.00;54.70
19192;DHT22;9728;48.194;16.346;2023-06-24T10:14:50;27.20;54.40
19192;DHT22;9728;48.194;16.346;2023-06-24T10:19:54;27.20;54.00
19192;DHT22;9728;48.194;16.346;2023-06-24T10:25:01;27.10;53.70
19192;DHT22;9728;48.194;16.346;2023-06-24T10:30:06;27.10;53.90
19192;DHT22;9728;48.194;16.346;2023-06-24T10:35:22;27.00;53.90
19192;DHT22;9728;48.194;16.346;2023-06-24T10:40:38;26.90;54.20
19192;DHT22;9728;48.194;16.346;2023-06-24T10:45:48;26.80;54.40
19192;DHT22;9728;48.194;16.346;2023-06-24T10:50:52;26.80;54.40
19192;DHT22;9728;48.194;16.346;2023-06-24T10:55:58;26.80;54.60
19192;DHT22;9728;48.194;16.346;2023-06-24T11:01:08;26.80;55.40
19192;DHT22;9728;48.194;16.346;2023-06-24T11:06:12;26.80;55.60
19192;DHT22;9728;48.194;16.346;2023-06-24T11:11:21;27.00;55.60
19192;DHT22;9728;48.194;16.346;2023-06-24T11:16:24;27.20;55.20
19192;DHT22;9728;48.194;16.346;2023-06-24T11:21:30;27.40;55.50
19192;DHT22;9728;48.194;16.346;2023-06-24T11:26:35;27.60;55.40
19192;DHT22;9728;48.194;16.346;2023-06-24T11:31:38;27.80;55.00
19192;DHT22;9728;48.194;16.346;2023-06-24T11:36:42;28.00;54.60
19192;DHT22;9728;48.194;16.346;2023-06-24T11:41:47;28.20;54.40
19192;DHT22;9728;48.194;16.346;2023-06-24T11:46:50;28.30;53.90
19192;DHT22;9728;48.194;16.346;2023-06-24T11:51:54;28.40;53.80
19192;DHT22;9728;48.194;16.346;2023-06-24T11:56:59;28.40;53.70
19192;DHT22;9728;48.194;16.346;2023-06-24T12:02:03;28.50;53.30
19192;DHT22;9728;48.194;16.346;2023-06-24T12:07:06;28.50;53.30
19192;DHT22;9728;48.194;16.346;2023-06-24T12:12:11;28.40;53.30
19192;DHT22;9728;48.194;16.346;2023-06-24T12:17:15;28.40;53.30
19192;DHT22;9728;48.194;16.346;2023-06-24T12:22:18;28.40;53.40
19192;DHT22;9728;48.194;16.346;2023-06-24T12:27:23;28.40;54.00
19192;DHT22;9728;48.194;16.346;2023-06-24T12:32:27;28.50;53.10
19192;DHT22;9728;48.194;16.346;2023-06-24T12:37:31;28.50;53.20
19192;DHT22;9728;48.194;16.346;2023-06-24T12:42:36;28.50;53.20
19192;DHT22;9728;48.194;16.346;2023-06-24T12:47:39;28.60;52.70
19192;DHT22;9728;48.194;16.346;2023-06-24T12:52:43;28.60;52.30
19192;DHT22;9728;48.194;16.346;2023-06-24T12:57:48;28.50;52.00
19192;DHT22;9728;48.194;16.346;2023-06-24T13:02:51;28.40;52.00
19192;DHT22;9728;48.194;16.346;2023-06-24T13:07:55;28.30;52.10
19192;DHT22;9728;48.194;16.346;2023-06-24T13:13:00;28.20;52.30
19192;DHT22;9728;48.194;16.346;2023-06-24T13:18:04;28.10;52.20
19192;DHT22;9728;48.194;16.346;2023-06-24T13:23:07;28.10;52.20
19192;DHT22;9728;48.194;16.346;2023-06-24T13:28:12;28.00;52.10
19192;DHT22;9728;48.194;16.346;2023-06-24T13:33:16;27.90;52.10
19192;DHT22;9728;48.194;16.346;2023-06-24T13:38:19;27.90;52.20
19192;DHT22;9728;48.194;16.346;2023-06-24T13:43:24;27.80;52.20
19192;DHT22;9728;48.194;16.346;2023-06-24T13:48:28;27.70;53.00
19192;DHT22;9728;48.194;16.346;2023-06-24T13:53:31;27.60;52.30
19192;DHT22;9728;48.194;16.346;2023-06-24T13:58:36;27.60;52.30
19192;DHT22;9728;48.194;16.346;2023-06-24T14:03:40;27.50;52.50
19192;DHT22;9728;48.194;16.346;2023-06-24T14:08:43;27.50;52.60
19192;DHT22;9728;48.194;16.346;2023-06-24T14:13:48;27.40;52.40
19192;DHT22;9728;48.194;16.346;2023-06-24T14:18:51;27.40;52.50
19192;DHT22;9728;48.194;16.346;2023-06-24T14:23:55;27.30;52.70
19192;DHT22;9728;48.194;16.346;2023-06-24T14:29:10;27.30;52.70
19192;DHT22;9728;48.194;16.346;2023-06-24T14:34:13;27.20;52.70
19192;DHT22;9728;48.194;16.346;2023-06-24T14:39:16;27.10;52.70
19192;DHT22;9728;48.194;16.346;2023-06-24T14:44:22;27.10;52.80
19192;DHT22;9728;48.194;16.346;2023-06-24T14:49:25;27.00;53.00
19192;DHT22;9728;48.194;16.346;2023-06-24T14:54:28;26.90;53.00
19192;DHT22;9728;48.194;16.346;2023-06-24T14:59:33;26.80;53.10
19192;DHT22;9728;48.194;16.346;2023-06-24T15:04:36;26.80;53.20
19192;DHT22;9728;48.194;16.346;2023-06-24T15:09:40;26.70;53.90
19192;DHT22;9728;48.194;16.346;2023-06-24T15:14:46;26.70;53.40
19192;DHT22;9728;48.194;16.346;2023-06-24T15:19:50;26.70;53.60
19192;DHT22;9728;48.194;16.346;2023-06-24T15:24:53;26.70;53.50
19192;DHT22;9728;48.194;16.346;2023-06-24T15:29:58;26.80;53.60
19192;DHT22;9728;48.194;16.346;2023-06-24T15:35:02;26.80;53.50
19192;DHT22;9728;48.194;16.346;2023-06-24T15:40:07;26.80;53.80
19192;DHT22;9728;48.194;16.346;2023-06-24T15:45:12;26.80;54.10
19192;DHT22;9728;48.194;16.346;2023-06-24T15:50:15;26.90;54.30
19192;DHT22;9728;48.194;16.346;2023-06-24T15:55:18;27.10;54.20
19192;DHT22;9728;48.194;16.346;2023-06-24T16:00:23;27.30;54.10
19192;DHT22;9728;48.194;16.346;2023-06-24T16:05:27;27.40;54.20
19192;DHT22;9728;48.194;16.346;2023-06-24T16:10:30;27.50;54.20
19192;DHT22;9728;48.194;16.346;2023-06-24T16:15:35;27.60;54.10
19192;DHT22;9728;48.194;16.346;2023-06-24T16:20:39;27.80;54.00
19192;DHT22;9728;48.194;16.346;2023-06-24T16:25:42;27.90;53.60
19192;DHT22;9728;48.194;16.346;2023-06-24T16:30:47;28.00;53.50
19192;DHT22;9728;48.194;16.346;2023-06-24T16:35:50;28.10;53.40
19192;DHT22;9728;48.194;16.346;2023-06-24T16:40:53;28.20;53.20
19192;DHT22;9728;48.194;16.346;2023-06-24T16:45:58;28.30;53.10
19192;DHT22;9728;48.194;16.346;2023-06-24T16:51:01;28.30;52.90
19192;DHT22;9728;48.194;16.346;2023-06-24T16:56:05;28.40;52.40
19192;DHT22;9728;48.194;16.346;2023-06-24T17:01:10;28.50;52.00
19192;DHT22;9728;48.194;16.346;2023-06-24T17:06:13;28.40;51.70
19192;DHT22;9728;48.194;16.346;2023-06-24T17:11:17;28.40;51.60
19192;DHT22;9728;48.194;16.346;2023-06-24T17:16:22;28.30;51.70
19192;DHT22;9728;48.194;16.346;2023-06-24T17:21:25;28.30;51.90
19192;DHT22;9728;48.194;16.346;2023-06-24T17:26:29;28.20;51.60
19192;DHT22;9728;48.194;16.346;2023-06-24T17:31:33;28.20;51.50
19192;DHT22;9728;48.194;16.346;2023-06-24T17:36:37;28.10;51.60
19192;DHT22;9728;48.194;16.346;2023-06-24T17:41:41;28.00;51.60
19192;DHT22;9728;48.194;16.346;2023-06-24T17:46:46;28.00;51.80
19192;DHT22;9728;48.194;16.346;2023-06-24T17:51:49;27.90;51.60
19192;DHT22;9728;48.194;16.346;2023-06-24T17:56:53;27.90;51.60
19192;DHT22;9728;48.194;16.346;2023-06-24T18:01:57;27.80;52.40
19192;DHT22;9728;48.194;16.346;2023-06-24T18:07:02;27.80;51.50
19192;DHT22;9728;48.194;16.346;2023-06-24T18:12:05;27.80;51.40
19192;DHT22;9728;48.194;16.346;2023-06-24T18:17:11;27.70;51.30
19192;DHT22;9728;48.194;16.346;2023-06-24T18:22:14;27.70;52.00
19192;DHT22;9728;48.194;16.346;2023-06-24T18:27:17;27.60;51.20
19192;DHT22;9728;48.194;16.346;2023-06-24T18:32:26;27.60;51.40
19192;DHT22;9728;48.194;16.346;2023-06-24T18:37:30;27.50;51.20
19192;DHT22;9728;48.194;16.346;2023-06-24T18:42:33;27.40;51.90
19192;DHT22;9728;48.194;16.346;2023-06-24T18:47:38;27.40;51.90
19192;DHT22;9728;48.194;16.346;2023-06-24T18:52:41;27.40;51.90
19192;DHT22;9728;48.194;16.346;2023-06-24T18:57:45;27.40;51.80
19192;DHT22;9728;48.194;16.346;2023-06-24T19:02:50;27.40;52.60
19192;DHT22;9728;48.194;16.346;2023-06-24T19:07:53;27.50;52.90
19192;DHT22;9728;48.194;16.346;2023-06-24T19:12:56;27.60;52.90
19192;DHT22;9728;48.194;16.346;2023-06-24T19:18:01;27.70;52.30
19192;DHT22;9728;48.194;16.346;2023-06-24T19:23:05;27.70;51.70
19192;DHT22;9728;48.194;16.346;2023-06-24T19:28:10;27.70;51.50
19192;DHT22;9728;48.194;16.346;2023-06-24T19:33:14;27.70;51.20
19192;DHT22;9728;48.194;16.346;2023-06-24T19:38:18;27.70;51.00
19192;DHT22;9728;48.194;16.346;2023-06-24T19:43:21;27.60;50.80
19192;DHT22;9728;48.194;16.346;2023-06-24T19:48:27;27.60;50.80
19192;DHT22;9728;48.194;16.346;2023-06-24T19:53:30;27.50;51.40
19192;DHT22;9728;48.194;16.346;2023-06-24T19:58:34;27.40;51.00
19192;DHT22;9728;48.194;16.346;2023-06-24T20:03:38;27.30;50.90
19192;DHT22;9728;48.194;16.346;2023-06-24T20:08:42;27.20;51.20
19192;DHT22;9728;48.194;16.346;2023-06-24T20:13:45;27.10;51.10
19192;DHT22;9728;48.194;16.346;2023-06-24T20:18:51;27.10;51.10
19192;DHT22;9728;48.194;16.346;2023-06-24T20:23:54;27.00;51.40
19192;DHT22;9728;48.194;16.346;2023-06-24T20:28:58;26.90;51.50
19192;DHT22;9728;48.194;16.346;2023-06-24T20:34:03;26.90;51.80
19192;DHT22;9728;48.194;16.346;2023-06-24T20:39:06;26.90;52.00
19192;DHT22;9728;48.194;16.346;2023-06-24T20:44:10;27.00;51.90
19192;DHT22;9728;48.194;16.346;2023-06-24T20:49:14;27.00;52.10
19192;DHT22;9728;48.194;16.346;2023-06-24T20:54:18;27.00;52.40
19192;DHT22;9728;48.194;16.346;2023-06-24T20:59:21;27.10;52.60
19192;DHT22;9728;48.194;16.346;2023-06-24T21:04:26;27.10;52.70
19192;DHT22;9728;48.194;16.346;2023-06-24T21:09:31;27.20;52.60
19192;DHT22;9728;48.194;16.346;2023-06-24T21:14:34;27.30;52.50
19192;DHT22;9728;48.194;16.346;2023-06-24T21:19:39;27.40;52.10
19192;DHT22;9728;48.194;16.346;2023-06-24T21:24:43;27.40;51.70
19192;DHT22;9728;48.194;16.346;2023-06-24T21:29:46;27.40;52.00
19192;DHT22;9728;48.194;16.346;2023-06-24T21:34:51;27.40;52.30
19192;DHT22;9728;48.194;16.346;2023-06-24T21:39:54;27.50;52.50
19192;DHT22;9728;48.194;16.346;2023-06-24T21:44:58;27.50;52.40
19192;DHT22;9728;48.194;16.346;2023-06-24T21:50:03;27.50;52.30
19192;DHT22;9728;48.194;16.346;2023-06-24T21:55:07;27.60;51.80
19192;DHT22;9728;48.194;16.346;2023-06-24T22:00:11;27.60;51.80
19192;DHT22;9728;48.194;16.346;2023-06-24T22:05:21;27.60;51.40
19192;DHT22;9728;48.194;16.346;2023-06-24T22:10:36;27.50;52.30
19192;DHT22;9728;48.194;16.346;2023-06-24T22:15:40;27.50;52.30
19192;DHT22;9728;48.194;16.346;2023-06-24T22:20:44;27.60;52.50
19192;DHT22;9728;48.194;16.346;2023-06-24T22:25:48;27.70;52.20
19192;DHT22;9728;48.194;16.346;2023-06-24T22:30:51;27.70;52.30
19192;DHT22;9728;48.194;16.346;2023-06-24T22:35:57;27.90;52.40
19192;DHT22;9728;48.194;16.346;2023-06-24T22:41:00;28.00;52.30
19192;DHT22;9728;48.194;16.346;2023-06-24T22:46:05;28.10;52.20
19192;DHT22;9728;48.194;16.346;2023-06-24T22:51:10;28.20;52.00
19192;DHT22;9728;48.194;16.346;2023-06-24T22:56:13;28.30;51.90
19192;DHT22;9728;48.194;16.346;2023-06-24T23:01:17;28.40;51.70
19192;DHT22;9728;48.194;16.346;2023-06-24T23:06:22;28.40;51.50
19192;DHT22;9728;48.194;16.346;2023-06-24T23:11:26;28.50;51.20
19192;DHT22;9728;48.194;16.346;2023-06-24T23:16:30;28.40;51.00
19192;DHT22;9728;48.194;16.346;2023-06-24T23:21:35;28.40;50.80
19192;DHT22;9728;48.194;16.346;2023-06-24T23:26:40;28.40;50.50
19192;DHT22;9728;48.194;16.346;2023-06-24T23:31:53;28.40;50.50
19192;DHT22;9728;48.194;16.346;2023-06-24T23:36:59;28.30;50.50
19192;DHT22;9728;48.194;16.346;2023-06-24T23:42:02;28.30;50.50
19192;DHT22;9728;48.194;16.346;2023-06-24T23:47:06;28.30;50.60
19192;DHT22;9728;48.194;16.346;2023-06-24T23:52:11;28.30;50.60
19192;DHT22;9728;48.194;16.346;2023-06-24T23:57:14;28.30;50.70
